createdAt,value
2022-08-27T00:00:57.861Z,9.75
2022-08-27T00:03:45.017Z,8.30
2022-08-27T00:06:30.925Z,10.20
2022-08-27T00:09:16.621Z,9.98
2022-08-27T00:12:13.573Z,9.98
2022-08-27T00:15:00.361Z,8.90
2022-08-27T00:17:46.803Z,10.43
2022-08-27T00:20:32.648Z,12.73
2022-08-27T00:23:17.950Z,12.90
2022-08-27T00:26:05.738Z,10.57
2022-08-27T00:28:52.075Z,13.07
2022-08-27T00:31:37.854Z,12.68
2022-08-27T00:34:23.860Z,12.02
2022-08-27T00:37:09.437Z,13.27
2022-08-27T00:39:55.229Z,12.10
2022-08-27T00:42:42.365Z,15.98
2022-08-27T00:45:28.142Z,19.80
2022-08-27T00:48:18.277Z,23.33
2022-08-27T00:51:05.776Z,16.80
2022-08-27T00:53:53.681Z,19.35
2022-08-27T00:56:51.415Z,20.30
2022-08-27T00:59:38.360Z,23.58
2022-08-27T01:02:29.262Z,16.70
2022-08-27T01:05:18.492Z,23.90
2022-08-27T01:08:09.256Z,19.20
2022-08-27T01:10:58.333Z,17.95
2022-08-27T01:14:00.114Z,18.55
2022-08-27T01:16:51.521Z,20.70
2022-08-27T01:19:53.811Z,22.02
2022-08-27T01:23:01.598Z,24.20
2022-08-27T01:25:47.685Z,17.40
2022-08-27T01:28:35.787Z,21.67
2022-08-27T01:31:23.717Z,19.27
2022-08-27T01:34:09.147Z,18.92
2022-08-27T01:36:57.424Z,21.02
2022-08-27T01:39:43.332Z,21.70
2022-08-27T01:42:39.408Z,19.67
2022-08-27T01:45:29.528Z,22.90
2022-08-27T01:48:16.504Z,19.70
2022-08-27T01:51:01.769Z,21.17
2022-08-27T01:53:48.250Z,20.95
2022-08-27T01:56:33.669Z,21.65
2022-08-27T01:59:19.319Z,20.33
2022-08-27T02:02:05.818Z,20.07
2022-08-27T02:04:51.964Z,19.90
2022-08-27T02:07:38.881Z,22.90
2022-08-27T02:10:33.060Z,18.60
2022-08-27T02:13:18.705Z,22.05
2022-08-27T02:16:04.564Z,20.95
2022-08-27T02:18:50.333Z,16.92
2022-08-27T02:21:36.149Z,19.75
2022-08-27T02:24:21.723Z,21.13
2022-08-27T02:27:07.863Z,21.50
2022-08-27T02:29:55.370Z,23.17
2022-08-27T02:32:40.772Z,19.52
2022-08-27T02:35:27.368Z,19.58
2022-08-27T02:38:13.937Z,19.67
2022-08-27T02:40:59.397Z,18.45
2022-08-27T02:43:45.605Z,14.55
2022-08-27T02:46:31.594Z,14.73
2022-08-27T02:49:17.962Z,16.10
2022-08-27T02:52:03.782Z,14.85
2022-08-27T02:54:50.279Z,19.57
2022-08-27T02:57:36.604Z,16.73
2022-08-27T03:00:24.340Z,17.88
2022-08-27T03:03:10.650Z,18.70
2022-08-27T03:05:58.031Z,15.88
2022-08-27T03:08:53.333Z,16.60
2022-08-27T03:11:39.521Z,15.80
2022-08-27T03:14:25.132Z,16.02
2022-08-27T03:17:29.286Z,13.13
2022-08-27T03:20:14.903Z,15.38
2022-08-27T03:23:00.616Z,19.00
2022-08-27T03:25:51.869Z,19.10
2022-08-27T03:28:38.657Z,17.42
2022-08-27T03:31:27.218Z,16.95
2022-08-27T03:34:13.212Z,20.77
2022-08-27T03:37:00.239Z,26.38
2022-08-27T03:39:46.037Z,19.73
2022-08-27T03:42:31.639Z,21.20
2022-08-27T03:45:17.118Z,18.65
2022-08-27T03:48:02.649Z,20.63
2022-08-27T03:50:49.974Z,16.88
2022-08-27T03:53:37.646Z,17.77
2022-08-27T03:56:23.140Z,22.75
2022-08-27T03:59:08.834Z,26.83
2022-08-27T04:01:54.523Z,18.73
2022-08-27T04:04:40.054Z,14.25
2022-08-27T04:07:25.702Z,17.23
2022-08-27T04:10:12.300Z,24.08
2022-08-27T04:12:57.623Z,23.58
2022-08-27T04:15:44.833Z,19.67
2022-08-27T04:18:30.806Z,17.45
2022-08-27T04:21:16.169Z,17.23
2022-08-27T04:24:02.186Z,21.53
2022-08-27T04:26:47.767Z,19.73
2022-08-27T04:29:33.731Z,15.93
2022-08-27T04:32:19.349Z,25.47
2022-08-27T04:35:05.549Z,21.92
2022-08-27T04:37:51.440Z,24.35
2022-08-27T04:40:56.575Z,17.20
2022-08-27T04:43:42.281Z,21.43
2022-08-27T04:46:30.718Z,21.25
2022-08-27T04:49:16.812Z,22.92
2022-08-27T04:52:03.579Z,20.90
2022-08-27T04:54:50.417Z,24.35
2022-08-27T04:57:37.856Z,25.75
2022-08-27T05:00:23.454Z,19.27
2022-08-27T05:03:08.939Z,21.75
2022-08-27T05:06:03.294Z,19.92
2022-08-27T05:08:50.334Z,20.87
2022-08-27T05:11:35.622Z,22.67
2022-08-27T05:14:22.133Z,16.67
2022-08-27T05:17:07.549Z,20.33
2022-08-27T05:19:53.180Z,16.52
2022-08-27T05:22:39.589Z,21.50
2022-08-27T05:25:26.671Z,16.63
2022-08-27T05:28:13.501Z,21.58
2022-08-27T05:31:06.458Z,20.60
2022-08-27T05:33:51.869Z,19.37
2022-08-27T05:36:48.922Z,18.57
2022-08-27T05:39:34.648Z,18.23
2022-08-27T05:42:20.208Z,16.58
2022-08-27T05:45:06.017Z,20.40
2022-08-27T05:47:51.471Z,24.00
2022-08-27T05:50:38.409Z,14.13
2022-08-27T05:53:24.111Z,18.48
2022-08-27T05:56:24.338Z,21.15
2022-08-27T05:59:28.174Z,20.77
2022-08-27T06:02:13.794Z,23.67
2022-08-27T06:04:59.240Z,21.13
2022-08-27T06:07:44.642Z,22.17
2022-08-27T06:10:30.360Z,18.42
2022-08-27T06:13:15.642Z,22.07
2022-08-27T06:16:03.688Z,24.05
2022-08-27T06:18:52.065Z,19.35
2022-08-27T06:21:37.653Z,17.58
2022-08-27T06:24:23.466Z,20.30
2022-08-27T06:27:14.808Z,19.20
2022-08-27T06:30:00.485Z,21.60
2022-08-27T06:32:46.441Z,22.15
2022-08-27T06:35:34.926Z,21.02
2022-08-27T06:38:20.563Z,19.60
2022-08-27T06:41:08.223Z,17.13
2022-08-27T06:44:11.049Z,23.40
2022-08-27T06:46:56.628Z,18.00
2022-08-27T06:49:43.823Z,19.90
2022-08-27T06:52:32.341Z,20.25
2022-08-27T06:55:17.745Z,22.90
2022-08-27T06:58:03.218Z,20.02
2022-08-27T07:00:49.184Z,17.20
2022-08-27T07:03:34.791Z,27.38
2022-08-27T07:06:20.435Z,19.40
2022-08-27T07:09:06.759Z,22.92
2022-08-27T07:11:52.147Z,18.88
2022-08-27T07:14:38.559Z,23.05
2022-08-27T07:17:24.184Z,18.15
2022-08-27T07:20:10.308Z,18.58
2022-08-27T07:22:58.703Z,19.15
2022-08-27T07:25:44.608Z,17.73
2022-08-27T07:28:30.058Z,17.73
2022-08-27T07:31:22.268Z,20.70
2022-08-27T07:34:08.060Z,19.35
2022-08-27T07:36:53.341Z,18.77
2022-08-27T07:39:38.865Z,18.88
2022-08-27T07:42:42.672Z,20.35
2022-08-27T07:45:29.693Z,19.08
2022-08-27T07:48:16.325Z,26.35
2022-08-27T07:51:05.154Z,18.95
2022-08-27T07:53:51.002Z,17.02
2022-08-27T07:56:36.706Z,17.90
2022-08-27T07:59:24.089Z,18.50
2022-08-27T08:02:10.207Z,19.08
2022-08-27T08:04:56.005Z,17.33
2022-08-27T08:07:41.584Z,20.53
2022-08-27T08:10:27.338Z,21.13
2022-08-27T08:13:12.661Z,21.47
2022-08-27T08:15:59.220Z,17.00
2022-08-27T08:18:44.716Z,16.47
2022-08-27T08:21:30.338Z,16.92
2022-08-27T08:24:15.592Z,19.15
2022-08-27T08:27:05.082Z,17.67
2022-08-27T08:29:52.755Z,13.17
2022-08-27T08:32:38.686Z,20.27
2022-08-27T08:35:24.486Z,15.75
2022-08-27T08:38:10.279Z,17.27
2022-08-27T08:40:56.201Z,15.05
2022-08-27T08:43:51.285Z,18.65
2022-08-27T08:46:47.417Z,17.20
2022-08-27T08:49:38.799Z,16.98
2022-08-27T08:52:31.498Z,16.88
2022-08-27T08:55:23.645Z,17.02
2022-08-27T08:58:30.451Z,14.13
2022-08-27T09:01:20.534Z,15.82
2022-08-27T09:04:11.336Z,12.05
2022-08-27T09:07:03.810Z,14.50
2022-08-27T09:10:14.457Z,13.95
2022-08-27T09:13:03.558Z,14.40
2022-08-27T09:15:49.166Z,16.05
2022-08-27T09:18:37.407Z,11.05
2022-08-27T09:21:52.285Z,10.50
2022-08-27T09:25:06.185Z,13.88
2022-08-27T09:27:53.107Z,14.07
2022-08-27T09:30:43.349Z,16.05
2022-08-27T09:33:43.836Z,17.48
2022-08-27T09:36:34.343Z,16.27
2022-08-27T09:39:20.684Z,14.15
2022-08-27T09:42:07.353Z,13.27
2022-08-27T09:44:53.900Z,12.23
2022-08-27T09:47:44.959Z,14.85
2022-08-27T09:50:58.267Z,15.25
2022-08-27T09:54:01.988Z,15.60
2022-08-27T09:56:49.189Z,15.50
2022-08-27T09:59:40.243Z,12.43
2022-08-27T10:02:27.284Z,13.77
2022-08-27T10:05:24.917Z,15.05
2022-08-27T10:08:40.988Z,23.05
2022-08-27T10:11:35.833Z,11.82
2022-08-27T10:14:32.035Z,11.13
2022-08-27T10:17:40.670Z,10.35
2022-08-27T10:20:38.961Z,11.40
2022-08-27T10:23:43.148Z,10.13
2022-08-27T10:26:38.211Z,13.17
2022-08-27T10:29:39.765Z,15.75
2022-08-27T10:33:03.848Z,17.98
2022-08-27T10:36:02.509Z,16.20
2022-08-27T10:39:09.480Z,11.38
2022-08-27T10:42:10.387Z,13.75
2022-08-27T10:45:11.617Z,12.52
2022-08-27T10:48:24.420Z,10.18
2022-08-27T10:51:16.905Z,7.93
2022-08-27T10:55:00.034Z,11.67
2022-08-27T10:58:14.650Z,8.23
2022-08-27T11:01:16.680Z,9.90
2022-08-27T11:04:08.490Z,9.50
2022-08-27T11:07:07.312Z,9.63
2022-08-27T11:09:58.543Z,11.77
2022-08-27T11:12:47.877Z,10.97
2022-08-27T11:15:37.351Z,12.80
2022-08-27T11:18:51.603Z,16.97
2022-08-27T11:21:55.008Z,17.67
2022-08-27T11:25:10.468Z,12.18
2022-08-27T11:27:58.338Z,12.50
2022-08-27T11:31:09.205Z,11.80
2022-08-27T11:34:14.609Z,11.93
2022-08-27T11:37:39.745Z,9.43
2022-08-27T11:40:44.100Z,12.20
2022-08-27T11:43:34.590Z,11.03
2022-08-27T11:46:26.290Z,8.75
2022-08-27T11:49:23.164Z,10.00
2022-08-27T11:52:10.159Z,9.00
2022-08-27T11:55:10.936Z,13.75
2022-08-27T11:58:06.431Z,14.57
2022-08-27T12:00:55.785Z,10.52
2022-08-27T12:03:43.018Z,10.03
2022-08-27T12:06:39.822Z,11.90
2022-08-27T12:09:25.428Z,9.93
2022-08-27T12:12:24.333Z,9.38
2022-08-27T12:15:35.550Z,11.38
2022-08-27T12:18:48.576Z,8.55
2022-08-27T12:21:39.617Z,9.95
2022-08-27T12:24:57.993Z,7.78
2022-08-27T12:27:54.235Z,7.47
2022-08-27T12:30:51.979Z,9.23
2022-08-27T12:33:43.899Z,8.13
2022-08-27T12:36:32.620Z,7.15
2022-08-27T12:39:28.195Z,7.22
2022-08-27T12:42:19.035Z,6.15
2022-08-27T12:45:04.657Z,7.50
2022-08-27T12:47:52.705Z,6.28
2022-08-27T12:50:38.408Z,6.25
2022-08-27T12:53:44.935Z,6.05
2022-08-27T12:57:04.522Z,11.53
2022-08-27T13:00:22.869Z,6.33
2022-08-27T13:03:22.299Z,7.18
2022-08-27T13:06:35.488Z,12.75
2022-08-27T13:09:33.253Z,9.52
2022-08-27T13:12:19.626Z,10.63
2022-08-27T13:15:10.580Z,5.22
2022-08-27T13:18:02.370Z,7.87
2022-08-27T13:20:53.045Z,9.73
2022-08-27T13:23:44.829Z,11.10
2022-08-27T13:26:37.379Z,9.82
2022-08-27T13:29:23.633Z,8.85
2022-08-27T13:32:13.987Z,10.27
2022-08-27T13:35:01.398Z,10.27
2022-08-27T13:37:51.391Z,11.05
2022-08-27T13:40:51.729Z,9.13
2022-08-27T13:43:42.321Z,8.60
2022-08-27T13:46:30.774Z,11.88
2022-08-27T13:49:25.537Z,12.27
2022-08-27T13:52:18.636Z,8.45
2022-08-27T13:55:09.235Z,7.05
2022-08-27T13:57:55.484Z,9.63
2022-08-27T14:00:41.561Z,11.50
2022-08-27T14:03:33.958Z,8.75
2022-08-27T14:06:35.844Z,7.70
2022-08-27T14:09:27.621Z,7.43
2022-08-27T14:12:28.952Z,6.75
2022-08-27T14:15:18.812Z,7.23
2022-08-27T14:18:08.048Z,8.30
2022-08-27T14:20:55.001Z,13.60
2022-08-27T14:23:40.278Z,8.52
2022-08-27T14:26:26.760Z,7.22
2022-08-27T14:29:12.625Z,8.80
2022-08-27T14:31:57.982Z,7.93
2022-08-27T14:34:43.804Z,9.85
2022-08-27T14:37:29.700Z,10.75
2022-08-27T14:40:15.403Z,7.77
2022-08-27T14:43:00.803Z,7.77
2022-08-27T14:45:47.272Z,7.28
2022-08-27T14:48:34.342Z,6.82
2022-08-27T14:51:26.421Z,6.20
2022-08-27T14:54:12.131Z,6.65
2022-08-27T14:56:58.949Z,4.00
2022-08-27T14:59:44.400Z,5.00
2022-08-27T15:02:30.073Z,4.40
2022-08-27T15:05:18.302Z,3.67
2022-08-27T15:08:04.499Z,4.72
2022-08-27T15:10:50.430Z,4.07
2022-08-27T15:13:38.518Z,3.78
2022-08-27T15:16:28.182Z,5.57
2022-08-27T15:19:15.303Z,3.95
2022-08-27T15:22:18.796Z,9.07
2022-08-27T15:25:05.471Z,2.25
2022-08-27T15:27:51.521Z,4.88
2022-08-27T15:30:37.988Z,4.05
2022-08-27T15:33:23.582Z,4.20
2022-08-27T15:36:09.332Z,2.75
2022-08-27T15:38:55.127Z,4.65
2022-08-27T15:42:05.109Z,3.07
2022-08-27T15:44:50.273Z,3.25
2022-08-27T15:47:35.781Z,2.95
2022-08-27T15:50:21.295Z,2.58
2022-08-27T15:53:08.736Z,3.97
2022-08-27T15:55:55.532Z,3.13
2022-08-27T15:58:40.876Z,3.83
2022-08-27T16:01:29.698Z,3.22
2022-08-27T16:04:15.644Z,1.88
2022-08-27T16:07:01.236Z,2.37
2022-08-27T16:09:46.679Z,4.05
2022-08-27T16:12:31.916Z,1.23
2022-08-27T16:15:17.430Z,4.25
2022-08-27T16:18:04.338Z,7.65
2022-08-27T16:20:50.004Z,3.75
2022-08-27T16:23:36.160Z,3.45
2022-08-27T16:26:22.167Z,2.70
2022-08-27T16:29:08.489Z,3.10
2022-08-27T16:32:00.559Z,4.07
2022-08-27T16:34:47.576Z,3.75
2022-08-27T16:37:42.382Z,4.18
2022-08-27T16:40:28.273Z,4.80
2022-08-27T16:43:20.927Z,6.30
2022-08-27T16:46:07.342Z,3.38
2022-08-27T16:49:11.642Z,2.78
2022-08-27T16:51:57.455Z,5.57
2022-08-27T16:54:42.912Z,4.63
2022-08-27T16:57:28.333Z,1.92
2022-08-27T17:00:14.035Z,5.95
2022-08-27T17:03:00.365Z,2.03
2022-08-27T17:05:46.177Z,4.77
2022-08-27T17:08:47.797Z,3.47
2022-08-27T17:11:35.530Z,3.50
2022-08-27T17:14:21.205Z,2.70
2022-08-27T17:17:06.426Z,4.28
2022-08-27T17:19:51.927Z,2.22
2022-08-27T17:22:37.898Z,2.20
2022-08-27T17:25:23.325Z,1.80
2022-08-27T17:28:15.784Z,2.70
2022-08-27T17:31:02.264Z,2.33
2022-08-27T17:33:50.348Z,5.20
2022-08-27T17:36:35.765Z,2.70
2022-08-27T17:39:21.351Z,2.72
2022-08-27T17:42:07.437Z,4.07
2022-08-27T17:44:52.804Z,7.32
2022-08-27T17:47:38.465Z,4.68
2022-08-27T17:50:23.950Z,2.75
2022-08-27T17:53:09.483Z,5.00
2022-08-27T17:55:54.893Z,2.42
2022-08-27T17:58:40.854Z,1.92
2022-08-27T18:01:30.155Z,2.97
2022-08-27T18:04:15.867Z,2.72
2022-08-27T18:07:01.216Z,4.85
2022-08-27T18:09:47.530Z,3.65
2022-08-27T18:12:33.386Z,3.95
2022-08-27T18:15:23.491Z,3.63
2022-08-27T18:18:10.068Z,4.03
2022-08-27T18:20:55.809Z,2.50
2022-08-27T18:23:42.657Z,2.65
2022-08-27T18:26:31.138Z,4.33
2022-08-27T18:29:16.823Z,2.40
2022-08-27T18:32:02.246Z,2.45
2022-08-27T18:34:47.846Z,2.67
2022-08-27T18:37:33.453Z,4.85
2022-08-27T18:40:21.033Z,3.25
2022-08-27T18:43:06.869Z,4.40
2022-08-27T18:45:52.458Z,2.97
2022-08-27T18:48:40.962Z,6.15
2022-08-27T18:51:26.710Z,2.42
2022-08-27T18:54:23.343Z,2.83
2022-08-27T18:57:08.746Z,4.45
2022-08-27T18:59:54.154Z,5.18
2022-08-27T19:02:40.466Z,4.00
2022-08-27T19:05:27.664Z,3.50
2022-08-27T19:08:13.725Z,4.30
2022-08-27T19:10:59.215Z,5.40
2022-08-27T19:13:44.702Z,3.75
2022-08-27T19:16:53.761Z,5.47
2022-08-27T19:19:39.433Z,5.47
2022-08-27T19:22:26.709Z,5.18
2022-08-27T19:25:12.667Z,2.50
2022-08-27T19:27:58.287Z,4.05
2022-08-27T19:30:44.772Z,2.35
2022-08-27T19:33:30.552Z,5.43
2022-08-27T19:36:18.828Z,4.23
2022-08-27T19:39:06.175Z,3.70
2022-08-27T19:41:51.347Z,7.38
2022-08-27T19:44:37.094Z,3.17
2022-08-27T19:47:25.808Z,4.78
2022-08-27T19:50:13.356Z,5.50
2022-08-27T19:52:59.107Z,3.85
2022-08-27T19:55:45.967Z,2.53
2022-08-27T19:58:31.498Z,4.18
2022-08-27T20:01:17.126Z,6.05
2022-08-27T20:04:03.844Z,6.00
2022-08-27T20:06:49.486Z,6.13
2022-08-27T20:09:35.353Z,3.72
2022-08-27T20:12:21.353Z,6.23
2022-08-27T20:15:06.906Z,6.63
2022-08-27T20:17:53.971Z,5.40
2022-08-27T20:20:40.498Z,9.40
2022-08-27T20:23:25.956Z,3.92
2022-08-27T20:26:11.696Z,4.13
2022-08-27T20:28:58.094Z,7.75
2022-08-27T20:31:43.922Z,4.25
2022-08-27T20:34:29.570Z,5.82
2022-08-27T20:37:17.184Z,2.65
2022-08-27T20:40:03.510Z,4.50
2022-08-27T20:42:48.879Z,6.17
2022-08-27T20:45:34.722Z,6.20
2022-08-27T20:48:20.277Z,4.22
2022-08-27T20:51:06.157Z,6.43
2022-08-27T20:53:52.245Z,4.15
2022-08-27T20:56:37.557Z,4.57
2022-08-27T20:59:41.655Z,7.93
2022-08-27T21:02:29.303Z,6.72
2022-08-27T21:05:16.316Z,8.48
2022-08-27T21:08:04.476Z,3.63
2022-08-27T21:10:56.691Z,5.75
2022-08-27T21:13:55.636Z,5.47
2022-08-27T21:16:42.405Z,5.53
2022-08-27T21:19:28.041Z,7.00
2022-08-27T21:22:13.367Z,4.10
2022-08-27T21:24:58.658Z,3.92
2022-08-27T21:27:44.334Z,9.50
2022-08-27T21:30:30.614Z,9.20
2022-08-27T21:33:16.281Z,5.18
2022-08-27T21:36:04.383Z,9.60
2022-08-27T21:38:49.917Z,4.97
2022-08-27T21:41:37.552Z,3.40
2022-08-27T21:44:23.360Z,5.28
2022-08-27T21:47:09.804Z,3.83
2022-08-27T21:49:55.336Z,6.53
2022-08-27T21:52:40.826Z,4.25
2022-08-27T21:55:26.319Z,5.95
2022-08-27T21:58:13.631Z,7.07
2022-08-27T22:01:01.647Z,5.93
2022-08-27T22:03:50.591Z,3.07
2022-08-27T22:06:36.138Z,3.92
2022-08-27T22:09:21.740Z,3.90
2022-08-27T22:12:07.311Z,4.28
2022-08-27T22:14:52.717Z,6.30
2022-08-27T22:17:38.093Z,6.65
2022-08-27T22:20:24.629Z,3.78
2022-08-27T22:23:11.840Z,5.97
2022-08-27T22:25:57.870Z,4.03
2022-08-27T22:28:43.200Z,5.22
2022-08-27T22:31:28.900Z,3.95
2022-08-27T22:34:15.100Z,7.25
2022-08-27T22:37:01.692Z,5.18
2022-08-27T22:39:47.153Z,6.63
2022-08-27T22:42:32.606Z,6.25
2022-08-27T22:45:20.422Z,4.28
2022-08-27T22:48:06.062Z,7.97
2022-08-27T22:50:51.603Z,4.13
2022-08-27T22:53:39.386Z,7.17
2022-08-27T22:56:25.672Z,5.25
2022-08-27T22:59:11.027Z,4.22
2022-08-27T23:01:57.199Z,3.70
2022-08-27T23:04:54.597Z,4.68
2022-08-27T23:07:41.306Z,5.30
2022-08-27T23:10:27.476Z,3.88
2022-08-27T23:13:13.455Z,3.17
2022-08-27T23:16:00.548Z,9.00
2022-08-27T23:18:46.030Z,5.70
2022-08-27T23:21:31.683Z,4.85
2022-08-27T23:24:17.131Z,4.27
2022-08-27T23:27:21.212Z,4.10
2022-08-27T23:30:07.965Z,8.13
2022-08-27T23:32:55.315Z,5.05
2022-08-27T23:35:44.318Z,8.18
2022-08-27T23:38:30.227Z,5.50
2022-08-27T23:41:16.279Z,6.18
2022-08-27T23:44:02.066Z,6.10
2022-08-27T23:46:48.515Z,7.20
2022-08-27T23:49:36.135Z,5.90
2022-08-27T23:52:21.820Z,3.50
2022-08-27T23:55:09.570Z,5.43
2022-08-27T23:57:57.616Z,5.25
